createdAt,value
2022-08-16T00:00:24.764Z,0.00
2022-08-16T00:01:25.066Z,0.00
2022-08-16T00:02:24.768Z,0.00
2022-08-16T00:03:24.740Z,0.00
2022-08-16T00:04:24.716Z,0.00
2022-08-16T00:05:24.709Z,0.00
2022-08-16T00:06:24.741Z,0.00
2022-08-16T00:07:24.692Z,0.00
2022-08-16T00:08:36.088Z,0.00
2022-08-16T00:09:25.680Z,0.00
2022-08-16T00:10:24.653Z,0.00
2022-08-16T00:11:24.688Z,0.00
2022-08-16T00:12:24.640Z,0.00
2022-08-16T00:13:24.633Z,0.00
2022-08-16T00:14:24.607Z,0.00
2022-08-16T00:15:24.593Z,0.00
2022-08-16T00:17:05.736Z,0.00
2022-08-16T00:17:25.576Z,0.00
2022-08-16T00:18:28.659Z,0.00
2022-08-16T00:19:28.323Z,0.00
2022-08-16T00:20:24.553Z,0.00
2022-08-16T00:21:24.581Z,0.00
2022-08-16T00:22:24.681Z,0.00
2022-08-16T00:23:34.346Z,0.00
2022-08-16T00:24:30.927Z,0.00
2022-08-16T00:26:33.880Z,0.00
2022-08-16T00:26:34.926Z,0.00
2022-08-16T00:27:25.466Z,0.00
2022-08-16T00:28:28.498Z,0.00
2022-08-16T00:29:24.464Z,0.00
2022-08-16T00:30:29.112Z,0.00
2022-08-16T00:31:24.495Z,0.00
2022-08-16T00:32:24.413Z,0.00
2022-08-16T00:33:24.399Z,0.00
2022-08-16T00:34:44.299Z,0.00
2022-08-16T00:35:25.384Z,0.00
2022-08-16T00:36:24.369Z,0.00
2022-08-16T00:37:25.123Z,0.00
2022-08-16T00:38:41.193Z,0.00
2022-08-16T00:39:25.363Z,0.00
2022-08-16T00:40:26.569Z,0.00
2022-08-16T00:41:25.311Z,0.00
2022-08-16T00:42:29.993Z,0.00
2022-08-16T00:43:25.292Z,0.00
2022-08-16T00:44:31.945Z,0.00
2022-08-16T00:45:25.307Z,0.00
2022-08-16T00:46:34.789Z,0.00
2022-08-16T00:47:25.298Z,0.00
2022-08-16T00:48:31.328Z,0.00
2022-08-16T00:49:25.223Z,0.00
2022-08-16T00:50:36.352Z,0.00
2022-08-16T00:51:25.190Z,0.00
2022-08-16T00:52:29.973Z,0.00
2022-08-16T00:53:25.168Z,0.00
2022-08-16T00:54:24.150Z,0.00
2022-08-16T00:55:24.141Z,0.00
2022-08-16T00:56:57.989Z,0.00
2022-08-16T00:57:25.163Z,0.00
2022-08-16T00:58:34.421Z,0.00
2022-08-16T00:59:25.089Z,0.00
2022-08-16T01:00:24.092Z,0.00
2022-08-16T01:01:24.144Z,0.00
2022-08-16T01:02:31.339Z,0.00
2022-08-16T01:03:30.311Z,0.00
2022-08-16T01:04:29.724Z,0.00
2022-08-16T01:05:25.055Z,0.00
2022-08-16T01:06:39.564Z,0.00
2022-08-16T01:07:25.058Z,0.00
2022-08-16T01:08:35.813Z,0.00
2022-08-16T01:09:24.975Z,0.00
2022-08-16T01:10:32.181Z,0.00
2022-08-16T01:11:24.957Z,0.00
2022-08-16T01:12:26.631Z,0.00
2022-08-16T01:13:23.937Z,0.00
2022-08-16T01:14:29.772Z,0.00
2022-08-16T01:15:24.914Z,0.00
2022-08-16T01:16:23.902Z,0.00
2022-08-16T01:17:24.241Z,0.00
2022-08-16T01:18:40.695Z,0.00
2022-08-16T01:19:24.869Z,0.00
2022-08-16T01:20:30.115Z,0.00
2022-08-16T01:21:24.841Z,0.00
2022-08-16T01:22:49.743Z,0.00
2022-08-16T01:23:24.819Z,0.00
2022-08-16T01:24:52.398Z,0.00
2022-08-16T01:25:34.098Z,0.00
2022-08-16T01:26:34.535Z,0.00
2022-08-16T01:27:24.803Z,0.00
2022-08-16T01:28:23.757Z,0.00
2022-08-16T01:29:49.614Z,0.00
2022-08-16T01:30:26.339Z,0.00
2022-08-16T01:31:23.727Z,0.00
2022-08-16T01:32:31.950Z,0.00
2022-08-16T01:33:24.698Z,0.00
2022-08-16T01:34:26.547Z,0.00
2022-08-16T01:35:23.682Z,0.00
2022-08-16T01:36:23.671Z,0.00
2022-08-16T01:37:23.708Z,0.00
2022-08-16T01:38:25.616Z,0.00
2022-08-16T01:39:23.679Z,0.00
2022-08-16T01:40:23.624Z,0.00
2022-08-16T01:41:23.789Z,0.00
2022-08-16T01:42:23.643Z,0.00
2022-08-16T01:43:23.594Z,0.00
2022-08-16T01:44:23.581Z,0.00
2022-08-16T01:45:24.562Z,0.00
2022-08-16T01:46:29.468Z,0.00
2022-08-16T01:47:24.599Z,0.00
2022-08-16T01:48:23.558Z,0.00
2022-08-16T01:49:23.525Z,0.00
2022-08-16T01:50:42.456Z,0.00
2022-08-16T01:51:24.500Z,0.00
2022-08-16T01:52:29.191Z,0.00
2022-08-16T01:53:24.470Z,0.00
2022-08-16T01:54:30.514Z,0.00
2022-08-16T01:55:24.462Z,0.00
2022-08-16T01:56:24.769Z,0.00
2022-08-16T01:57:23.463Z,0.00
2022-08-16T01:58:23.418Z,0.00
2022-08-16T01:59:23.402Z,0.00
2022-08-16T02:00:29.133Z,0.00
2022-08-16T02:01:25.961Z,0.00
2022-08-16T02:02:27.328Z,0.00
2022-08-16T02:03:26.561Z,0.00
2022-08-16T02:04:48.054Z,0.00
2022-08-16T02:05:24.331Z,0.00
2022-08-16T02:06:34.686Z,0.00
2022-08-16T02:07:24.462Z,0.00
2022-08-16T02:08:32.664Z,0.00
2022-08-16T02:09:24.284Z,0.00
2022-08-16T02:10:24.278Z,0.00
2022-08-16T02:11:23.269Z,0.00
2022-08-16T02:12:42.107Z,0.00
2022-08-16T02:13:27.807Z,0.00
2022-08-16T02:14:26.291Z,0.00
2022-08-16T02:15:24.910Z,0.00
2022-08-16T02:16:23.215Z,0.00
2022-08-16T02:17:23.206Z,0.00
2022-08-16T02:18:23.230Z,0.00
2022-08-16T02:19:23.174Z,0.00
2022-08-16T02:20:26.211Z,0.00
2022-08-16T02:21:31.071Z,0.00
2022-08-16T02:22:34.252Z,0.00
2022-08-16T02:23:24.130Z,0.00
2022-08-16T02:24:32.105Z,0.00
2022-08-16T02:25:24.126Z,0.00
2022-08-16T02:26:23.106Z,0.00
2022-08-16T02:27:23.086Z,0.00
2022-08-16T02:28:23.687Z,0.00
2022-08-16T02:29:23.051Z,0.00
2022-08-16T02:30:36.794Z,0.00
2022-08-16T02:32:03.558Z,0.00
2022-08-16T02:32:49.031Z,0.00
2022-08-16T02:33:24.779Z,0.00
2022-08-16T02:34:33.010Z,0.00
2022-08-16T02:35:23.991Z,0.00
2022-08-16T02:36:47.431Z,0.00
2022-08-16T02:37:23.976Z,0.00
2022-08-16T02:38:24.144Z,0.00
2022-08-16T02:39:23.098Z,0.00
2022-08-16T02:40:22.944Z,0.00
2022-08-16T02:41:22.936Z,0.00
2022-08-16T02:42:22.914Z,0.00
2022-08-16T02:43:27.210Z,0.00
2022-08-16T02:44:22.895Z,0.00
2022-08-16T02:45:24.807Z,0.00
2022-08-16T02:46:29.993Z,0.00
2022-08-16T02:47:25.369Z,0.00
2022-08-16T02:48:28.298Z,0.00
2022-08-16T02:49:32.226Z,0.00
2022-08-16T02:50:53.660Z,0.00
2022-08-16T02:51:23.804Z,0.00
2022-08-16T02:52:29.241Z,0.00
2022-08-16T02:53:23.870Z,0.00
2022-08-16T02:54:23.924Z,0.00
2022-08-16T02:55:41.137Z,0.00
2022-08-16T02:56:23.753Z,0.00
2022-08-16T02:57:23.735Z,0.00
2022-08-16T02:58:25.105Z,0.00
2022-08-16T02:59:22.716Z,0.00
2022-08-16T03:00:33.889Z,0.00
2022-08-16T03:01:24.357Z,0.00
2022-08-16T03:02:32.111Z,0.00
2022-08-16T03:03:23.701Z,0.00
2022-08-16T03:04:46.384Z,0.00
2022-08-16T03:05:23.635Z,0.00
2022-08-16T03:06:39.003Z,0.00
2022-08-16T03:07:27.539Z,0.00
2022-08-16T03:08:49.712Z,0.00
2022-08-16T03:09:23.598Z,0.00
2022-08-16T03:10:22.585Z,0.00
2022-08-16T03:11:23.580Z,0.00
2022-08-16T03:12:30.300Z,0.00
2022-08-16T03:13:23.595Z,0.00
2022-08-16T03:14:24.687Z,0.00
2022-08-16T03:15:22.530Z,0.00
2022-08-16T03:16:38.060Z,0.00
2022-08-16T03:17:23.509Z,0.00
2022-08-16T03:18:34.732Z,0.00
2022-08-16T03:19:23.481Z,0.00
2022-08-16T03:20:32.310Z,0.00
2022-08-16T03:21:23.458Z,0.00
2022-08-16T03:22:28.216Z,0.00
2022-08-16T03:23:23.481Z,0.00
2022-08-16T03:24:28.711Z,0.00
2022-08-16T03:25:23.408Z,0.00
2022-08-16T03:26:22.410Z,0.00
2022-08-16T03:27:22.389Z,0.00
2022-08-16T03:28:22.435Z,0.00
2022-08-16T03:29:22.367Z,0.00
2022-08-16T03:30:22.364Z,0.00
2022-08-16T03:31:22.337Z,0.00
2022-08-16T03:32:22.329Z,0.00
2022-08-16T03:33:22.356Z,0.00
2022-08-16T03:34:22.298Z,0.00
2022-08-16T03:35:22.294Z,5.62
2022-08-16T03:36:31.293Z,5.62
2022-08-16T03:37:23.273Z,5.62
2022-08-16T03:38:32.471Z,5.62
2022-08-16T03:39:23.279Z,5.62
2022-08-16T03:40:31.436Z,5.62
2022-08-16T03:41:25.573Z,11.25
2022-08-16T03:42:23.354Z,11.25
2022-08-16T03:43:22.245Z,11.25
2022-08-16T03:44:44.064Z,11.25
2022-08-16T03:45:27.227Z,11.25
2022-08-16T03:46:47.281Z,16.88
2022-08-16T03:47:23.153Z,16.88
2022-08-16T03:48:36.577Z,16.88
2022-08-16T03:49:23.128Z,22.50
2022-08-16T03:50:26.037Z,22.50
2022-08-16T03:51:23.782Z,22.50
2022-08-16T03:52:23.412Z,28.12
2022-08-16T03:53:22.136Z,28.12
2022-08-16T03:54:22.086Z,28.12
2022-08-16T03:55:22.065Z,33.75
2022-08-16T03:56:23.061Z,33.75
2022-08-16T03:57:22.065Z,33.75
2022-08-16T03:58:22.042Z,39.38
2022-08-16T03:59:22.056Z,39.38
2022-08-16T04:00:36.314Z,45.00
2022-08-16T04:01:23.091Z,45.00
2022-08-16T04:02:31.206Z,50.62
2022-08-16T04:03:22.966Z,50.62
2022-08-16T04:04:30.943Z,56.25
2022-08-16T04:05:22.941Z,56.25
2022-08-16T04:06:21.931Z,61.88
2022-08-16T04:07:21.924Z,67.50
2022-08-16T04:08:24.078Z,67.50
2022-08-16T04:09:21.951Z,73.12
2022-08-16T04:10:36.351Z,73.12
2022-08-16T04:11:23.612Z,78.75
2022-08-16T04:12:52.501Z,84.38
2022-08-16T04:14:01.336Z,84.38
2022-08-16T04:14:31.046Z,90.00
2022-08-16T04:15:22.832Z,95.62
2022-08-16T04:16:27.228Z,101.25
2022-08-16T04:17:24.283Z,101.25
2022-08-16T04:18:21.807Z,106.88
2022-08-16T04:19:21.840Z,112.50
2022-08-16T04:20:31.430Z,112.50
2022-08-16T04:21:29.637Z,118.12
2022-08-16T04:22:22.749Z,123.75
2022-08-16T04:23:22.737Z,129.38
2022-08-16T04:24:21.769Z,129.38
2022-08-16T04:25:22.765Z,129.38
2022-08-16T04:26:21.708Z,135.00
2022-08-16T04:27:21.693Z,140.62
2022-08-16T04:28:29.269Z,140.62
2022-08-16T04:29:24.894Z,146.25
2022-08-16T04:30:31.889Z,151.88
2022-08-16T04:31:22.648Z,157.50
2022-08-16T04:32:21.638Z,163.12
2022-08-16T04:33:26.995Z,168.75
2022-08-16T04:34:22.613Z,174.38
2022-08-16T04:35:21.589Z,180.00
2022-08-16T04:36:21.586Z,185.62
2022-08-16T04:37:21.568Z,185.62
2022-08-16T04:38:21.691Z,185.62
2022-08-16T04:39:24.035Z,191.25
2022-08-16T04:40:25.194Z,191.25
2022-08-16T04:41:24.635Z,191.25
2022-08-16T04:42:25.826Z,196.88
2022-08-16T04:43:21.554Z,196.88
2022-08-16T04:44:32.965Z,196.88
2022-08-16T04:45:36.432Z,202.50
2022-08-16T04:47:03.416Z,208.12
2022-08-16T04:47:24.241Z,208.12
2022-08-16T04:48:21.973Z,202.50
2022-08-16T04:49:22.491Z,213.75
2022-08-16T04:50:21.428Z,225.00
2022-08-16T04:51:21.419Z,225.00
2022-08-16T04:52:34.620Z,213.75
2022-08-16T04:53:22.387Z,213.75
2022-08-16T04:54:21.432Z,208.12
2022-08-16T04:55:21.367Z,213.75
2022-08-16T04:56:22.364Z,230.62
2022-08-16T04:57:21.343Z,236.25
2022-08-16T04:58:43.561Z,241.88
2022-08-16T04:59:22.370Z,253.12
2022-08-16T05:00:32.349Z,258.75
2022-08-16T05:01:22.341Z,253.12
2022-08-16T05:02:42.008Z,258.75
2022-08-16T05:03:22.434Z,264.38
2022-08-16T05:04:21.314Z,275.62
2022-08-16T05:05:21.254Z,281.25
2022-08-16T05:06:21.246Z,286.88
2022-08-16T05:07:22.232Z,292.50
2022-08-16T05:08:29.425Z,292.50
2022-08-16T05:09:22.955Z,292.50
2022-08-16T05:10:22.922Z,298.12
2022-08-16T05:11:21.204Z,298.12
2022-08-16T05:12:22.307Z,303.75
2022-08-16T05:13:22.181Z,309.38
2022-08-16T05:14:45.429Z,309.38
2022-08-16T05:15:22.132Z,309.38
2022-08-16T05:16:22.890Z,315.00
2022-08-16T05:17:24.735Z,320.62
2022-08-16T05:18:23.383Z,326.25
2022-08-16T05:19:22.130Z,326.25
2022-08-16T05:20:39.403Z,331.88
2022-08-16T05:21:22.143Z,331.88
2022-08-16T05:22:21.086Z,331.88
2022-08-16T05:23:21.194Z,337.50
2022-08-16T05:24:22.068Z,343.12
2022-08-16T05:25:21.020Z,343.12
2022-08-16T05:26:21.008Z,343.12
2022-08-16T05:27:21.015Z,348.75
2022-08-16T05:28:20.982Z,348.75
2022-08-16T05:29:21.047Z,348.75
2022-08-16T05:30:34.765Z,354.38
2022-08-16T05:31:21.971Z,360.00
2022-08-16T05:32:31.964Z,360.00
2022-08-16T05:33:21.927Z,360.00
2022-08-16T05:34:20.969Z,365.62
2022-08-16T05:35:21.026Z,365.62
2022-08-16T05:36:21.074Z,365.62
2022-08-16T05:37:20.879Z,365.62
2022-08-16T05:38:32.249Z,365.62
2022-08-16T05:39:22.393Z,371.25
2022-08-16T05:40:20.875Z,371.25
2022-08-16T05:41:20.856Z,371.25
2022-08-16T05:42:20.832Z,376.88
2022-08-16T05:43:21.814Z,376.88
2022-08-16T05:44:23.877Z,376.88
2022-08-16T05:45:21.977Z,382.50
2022-08-16T05:46:30.013Z,382.50
2022-08-16T05:47:21.788Z,388.12
2022-08-16T05:48:20.765Z,388.12
2022-08-16T05:49:22.626Z,388.12
2022-08-16T05:50:20.745Z,393.75
2022-08-16T05:51:35.246Z,393.75
2022-08-16T05:52:21.710Z,393.75
2022-08-16T05:53:24.202Z,399.38
2022-08-16T05:54:25.059Z,399.38
2022-08-16T05:55:21.688Z,405.00
2022-08-16T05:56:20.681Z,405.00
2022-08-16T05:57:20.808Z,410.62
2022-08-16T05:58:33.192Z,410.62
2022-08-16T05:59:22.025Z,416.25
2022-08-16T06:00:22.606Z,416.25
2022-08-16T06:01:20.679Z,416.25
2022-08-16T06:02:20.597Z,421.88
2022-08-16T06:03:20.590Z,421.88
2022-08-16T06:04:36.022Z,427.50
2022-08-16T06:05:21.583Z,427.50
2022-08-16T06:06:28.000Z,433.12
2022-08-16T06:07:24.991Z,433.12
2022-08-16T06:08:31.875Z,438.75
2022-08-16T06:09:21.572Z,438.75
2022-08-16T06:10:32.522Z,444.38
2022-08-16T06:11:21.499Z,444.38
2022-08-16T06:12:26.770Z,444.38
2022-08-16T06:13:21.478Z,450.00
2022-08-16T06:14:20.709Z,450.00
2022-08-16T06:15:20.466Z,455.62
2022-08-16T06:16:20.456Z,461.25
2022-08-16T06:17:21.645Z,461.25
2022-08-16T06:18:20.426Z,461.25
2022-08-16T06:19:21.463Z,466.88
2022-08-16T06:20:24.240Z,466.88
2022-08-16T06:21:23.589Z,472.50
2022-08-16T06:22:38.986Z,472.50
2022-08-16T06:23:21.578Z,478.12
2022-08-16T06:24:54.745Z,478.12
2022-08-16T06:25:35.437Z,478.12
2022-08-16T06:26:21.332Z,478.12
2022-08-16T06:27:20.310Z,483.75
2022-08-16T06:28:36.342Z,483.75
2022-08-16T06:29:21.341Z,489.38
2022-08-16T06:30:20.287Z,489.38
2022-08-16T06:31:24.585Z,489.38
2022-08-16T06:32:27.688Z,489.38
2022-08-16T06:33:22.626Z,495.00
2022-08-16T06:34:55.703Z,495.00
2022-08-16T06:35:21.249Z,495.00
2022-08-16T06:36:20.973Z,495.00
2022-08-16T06:37:20.212Z,495.00
2022-08-16T06:38:32.595Z,495.00
2022-08-16T06:39:21.235Z,495.00
2022-08-16T06:40:20.167Z,495.00
2022-08-16T06:41:20.147Z,495.00
2022-08-16T06:42:20.146Z,489.38
2022-08-16T06:43:20.142Z,495.00
2022-08-16T06:44:21.617Z,495.00
2022-08-16T06:45:20.158Z,495.00
2022-08-16T06:46:20.115Z,495.00
2022-08-16T06:47:20.099Z,495.00
2022-08-16T06:48:20.100Z,495.00
2022-08-16T06:49:21.131Z,500.62
2022-08-16T06:50:22.049Z,500.62
2022-08-16T06:51:21.056Z,506.25
2022-08-16T06:52:57.736Z,506.25
2022-08-16T06:53:21.031Z,511.88
2022-08-16T06:54:20.056Z,511.88
2022-08-16T06:55:20.024Z,511.88
2022-08-16T06:56:23.682Z,511.88
2022-08-16T06:57:19.978Z,517.50
2022-08-16T06:58:22.003Z,517.50
2022-08-16T06:59:20.015Z,511.88
2022-08-16T07:00:24.179Z,517.50
2022-08-16T07:01:25.175Z,517.50
2022-08-16T07:02:32.784Z,517.50
2022-08-16T07:03:27.601Z,523.12
2022-08-16T07:04:32.544Z,528.75
2022-08-16T07:05:20.910Z,528.75
2022-08-16T07:06:21.853Z,534.38
2022-08-16T07:07:20.897Z,534.38
2022-08-16T07:08:19.876Z,534.38
2022-08-16T07:09:19.902Z,540.00
2022-08-16T07:10:19.844Z,540.00
2022-08-16T07:11:20.832Z,540.00
2022-08-16T07:12:20.795Z,545.62
2022-08-16T07:13:43.932Z,545.62
2022-08-16T07:14:24.298Z,551.25
2022-08-16T07:15:19.782Z,551.25
2022-08-16T07:16:20.773Z,551.25
2022-08-16T07:17:19.767Z,556.88
2022-08-16T07:18:19.788Z,556.88
2022-08-16T07:19:19.751Z,562.50
2022-08-16T07:20:34.890Z,562.50
2022-08-16T07:21:20.740Z,568.12
2022-08-16T07:22:37.906Z,573.75
2022-08-16T07:23:20.747Z,573.75
2022-08-16T07:24:29.633Z,568.12
2022-08-16T07:25:20.663Z,568.12
2022-08-16T07:26:25.230Z,573.75
2022-08-16T07:27:20.661Z,579.38
2022-08-16T07:28:20.660Z,579.38
2022-08-16T07:29:19.650Z,585.00
2022-08-16T07:30:45.686Z,590.62
2022-08-16T07:31:20.645Z,601.88
2022-08-16T07:32:19.602Z,607.50
2022-08-16T07:33:52.821Z,601.88
2022-08-16T07:34:20.580Z,607.50
2022-08-16T07:35:20.552Z,607.50
2022-08-16T07:36:21.858Z,607.50
2022-08-16T07:37:23.104Z,607.50
2022-08-16T07:38:20.153Z,607.50
2022-08-16T07:39:20.509Z,607.50
2022-08-16T07:40:27.885Z,607.50
2022-08-16T07:41:20.497Z,613.12
2022-08-16T07:42:20.157Z,613.12
2022-08-16T07:43:20.532Z,613.12
2022-08-16T07:44:19.476Z,613.12
2022-08-16T07:45:19.456Z,613.12
2022-08-16T07:46:37.580Z,618.75
2022-08-16T07:47:24.423Z,624.38
2022-08-16T07:48:19.477Z,630.00
2022-08-16T07:49:19.414Z,635.62
2022-08-16T07:50:55.942Z,641.25
2022-08-16T07:51:20.379Z,652.50
2022-08-16T07:52:20.382Z,658.12
2022-08-16T07:53:19.369Z,663.75
2022-08-16T07:54:21.307Z,675.00
2022-08-16T07:55:20.353Z,686.25
2022-08-16T07:56:19.388Z,697.50
2022-08-16T07:57:19.332Z,714.38
2022-08-16T07:58:33.697Z,725.62
2022-08-16T07:59:20.367Z,748.12
2022-08-16T08:00:19.279Z,770.62
2022-08-16T08:01:19.344Z,793.12
2022-08-16T08:02:21.057Z,826.88
2022-08-16T08:03:19.246Z,860.62
2022-08-16T08:04:19.289Z,900.00
2022-08-16T08:05:26.162Z,950.62
2022-08-16T08:06:20.227Z,1012.50
2022-08-16T08:07:19.215Z,1085.62
2022-08-16T08:08:50.670Z,1147.50
2022-08-16T08:09:20.229Z,1215.00
2022-08-16T08:10:29.633Z,1282.50
2022-08-16T08:11:21.331Z,1350.00
2022-08-16T08:12:31.550Z,1428.75
2022-08-16T08:13:20.140Z,1513.12
2022-08-16T08:14:29.800Z,1603.12
2022-08-16T08:15:25.163Z,1665.00
2022-08-16T08:16:20.096Z,1698.75
2022-08-16T08:17:19.110Z,1732.50
2022-08-16T08:18:30.373Z,1760.62
2022-08-16T08:19:20.116Z,1783.12
2022-08-16T08:20:26.306Z,1811.25
2022-08-16T08:21:26.204Z,1822.50
2022-08-16T08:22:22.055Z,1839.38
2022-08-16T08:23:19.033Z,1856.25
2022-08-16T08:24:19.071Z,1867.50
2022-08-16T08:25:19.124Z,1878.75
2022-08-16T08:26:19.016Z,1890.00
2022-08-16T08:27:23.046Z,1906.88
2022-08-16T08:28:19.957Z,1918.12
2022-08-16T08:29:23.015Z,1923.75
2022-08-16T08:30:50.223Z,1929.38
2022-08-16T08:31:19.952Z,1946.25
2022-08-16T08:32:59.760Z,1957.50
2022-08-16T08:33:19.924Z,1968.75
2022-08-16T08:34:18.956Z,1968.75
2022-08-16T08:35:18.933Z,1985.62
2022-08-16T08:36:22.114Z,1996.88
2022-08-16T08:37:18.887Z,1996.88
2022-08-16T08:38:44.241Z,2013.75
2022-08-16T08:39:20.784Z,2019.38
2022-08-16T08:40:18.971Z,2013.75
2022-08-16T08:41:27.309Z,2025.00
2022-08-16T08:42:25.131Z,2030.62
2022-08-16T08:43:19.844Z,2041.88
2022-08-16T08:44:28.732Z,2041.88
2022-08-16T08:45:43.028Z,2047.50
2022-08-16T08:46:21.632Z,2070.00
2022-08-16T08:47:18.803Z,2092.50
2022-08-16T08:48:34.455Z,2092.50
2022-08-16T08:49:19.821Z,2098.12
2022-08-16T08:50:31.979Z,2115.00
2022-08-16T08:51:19.763Z,2109.38
2022-08-16T08:52:34.890Z,2131.88
2022-08-16T08:53:19.718Z,2131.88
2022-08-16T08:54:20.746Z,2160.00
2022-08-16T08:55:18.700Z,2160.00
2022-08-16T08:56:23.529Z,2171.25
2022-08-16T08:57:19.679Z,2188.12
2022-08-16T08:58:18.654Z,2188.12
2022-08-16T08:59:20.153Z,2199.38
2022-08-16T09:00:21.376Z,2210.62
2022-08-16T09:01:18.628Z,2244.38
2022-08-16T09:02:19.712Z,2233.12
2022-08-16T09:03:18.621Z,2238.75
2022-08-16T09:04:18.684Z,2238.75
2022-08-16T09:05:18.581Z,2250.00
2022-08-16T09:06:18.688Z,2278.12
2022-08-16T09:07:18.566Z,2278.12
2022-08-16T09:08:18.558Z,2289.38
2022-08-16T09:09:18.581Z,2300.62
2022-08-16T09:10:20.310Z,2283.75
2022-08-16T09:11:18.560Z,2311.88
2022-08-16T09:12:35.860Z,2323.12
2022-08-16T09:13:19.495Z,2340.00
2022-08-16T09:14:23.961Z,2345.62
2022-08-16T09:15:21.506Z,2334.38
2022-08-16T09:17:02.723Z,2334.38
2022-08-16T09:17:45.517Z,2351.25
2022-08-16T09:18:26.583Z,2356.88
2022-08-16T09:19:19.480Z,2379.38
2022-08-16T09:20:19.997Z,2390.62
2022-08-16T09:21:18.442Z,2379.38
2022-08-16T09:22:20.984Z,2396.25
2022-08-16T09:23:18.562Z,2424.38
2022-08-16T09:24:35.166Z,2418.75
2022-08-16T09:25:25.898Z,2424.38
2022-08-16T09:26:46.068Z,2424.38
2022-08-16T09:27:19.351Z,2430.00
2022-08-16T09:29:13.848Z,2418.75
2022-08-16T09:29:23.641Z,2418.75
2022-08-16T09:30:31.772Z,2452.50
2022-08-16T09:31:19.349Z,2458.12
2022-08-16T09:32:28.628Z,2463.75
2022-08-16T09:33:19.691Z,2463.75
2022-08-16T09:34:19.288Z,2508.75
2022-08-16T09:35:18.277Z,2536.88
2022-08-16T09:36:32.017Z,2536.88
2022-08-16T09:37:19.825Z,2525.62
2022-08-16T09:38:31.353Z,2542.50
2022-08-16T09:39:19.299Z,2559.38
2022-08-16T09:40:33.110Z,2542.50
2022-08-16T09:41:19.210Z,2553.75
2022-08-16T09:42:19.022Z,2559.38
2022-08-16T09:43:53.247Z,2565.00
2022-08-16T09:45:13.191Z,2570.62
2022-08-16T09:45:19.190Z,2576.25
2022-08-16T09:46:45.576Z,2565.00
2022-08-16T09:47:19.150Z,2587.50
2022-08-16T09:48:36.862Z,2604.38
2022-08-16T09:49:19.962Z,2610.00
2022-08-16T09:50:23.021Z,2638.12
2022-08-16T09:51:19.159Z,2581.88
2022-08-16T09:52:18.129Z,2626.88
2022-08-16T09:53:18.089Z,2621.25
2022-08-16T09:54:20.895Z,2626.88
2022-08-16T09:55:18.139Z,2581.88
2022-08-16T09:56:18.080Z,2565.00
2022-08-16T09:57:18.068Z,2660.62
2022-08-16T09:58:41.318Z,2666.25
2022-08-16T09:59:19.037Z,2671.88
2022-08-16T10:00:42.295Z,2711.25
2022-08-16T10:01:19.029Z,2716.88
2022-08-16T10:02:25.837Z,2728.12
2022-08-16T10:03:19.074Z,2745.00
2022-08-16T10:04:31.412Z,2767.50
2022-08-16T10:05:19.054Z,2778.75
2022-08-16T10:06:18.001Z,2739.38
2022-08-16T10:07:17.956Z,2739.38
2022-08-16T10:08:25.364Z,2761.88
2022-08-16T10:09:18.940Z,2756.25
2022-08-16T10:10:18.654Z,2733.75
2022-08-16T10:11:23.933Z,2716.88
2022-08-16T10:12:19.862Z,2711.25
2022-08-16T10:13:17.889Z,2711.25
2022-08-16T10:14:17.887Z,2722.50
2022-08-16T10:15:17.973Z,2739.38
2022-08-16T10:16:18.029Z,2767.50
2022-08-16T10:17:17.944Z,2818.12
2022-08-16T10:18:56.147Z,2840.62
2022-08-16T10:19:19.289Z,2835.00
2022-08-16T10:20:18.682Z,2739.38
2022-08-16T10:21:17.822Z,2739.38
2022-08-16T10:22:17.854Z,2728.12
2022-08-16T10:23:18.799Z,2756.25
2022-08-16T10:24:28.273Z,2750.62
2022-08-16T10:27:17.380Z,2745.00
2022-08-16T10:27:19.264Z,2733.75
2022-08-16T10:27:27.224Z,2756.25
2022-08-16T10:28:28.193Z,2761.88
2022-08-16T10:29:19.955Z,2761.88
2022-08-16T10:30:25.676Z,2767.50
2022-08-16T10:31:44.295Z,2790.00
2022-08-16T10:32:21.048Z,2795.62
2022-08-16T10:33:17.711Z,2767.50
2022-08-16T10:34:30.758Z,2767.50
2022-08-16T10:35:18.807Z,2767.50
2022-08-16T10:36:38.740Z,2773.12
2022-08-16T10:37:18.683Z,2790.00
2022-08-16T10:38:27.104Z,2806.88
2022-08-16T10:39:18.654Z,2801.25
2022-08-16T10:40:29.388Z,2812.50
2022-08-16T10:41:23.360Z,2812.50
2022-08-16T10:42:18.644Z,2806.88
2022-08-16T10:43:18.645Z,2801.25
2022-08-16T10:44:17.765Z,2812.50
2022-08-16T10:45:17.633Z,2812.50
2022-08-16T10:46:39.188Z,2818.12
2022-08-16T10:47:18.577Z,2835.00
2022-08-16T10:48:27.073Z,2835.00
2022-08-16T10:49:18.575Z,2823.75
2022-08-16T10:50:19.630Z,2795.62
2022-08-16T10:51:17.636Z,2784.38
2022-08-16T10:52:19.432Z,2778.75
2022-08-16T10:53:17.622Z,2790.00
2022-08-16T10:54:28.663Z,2795.62
2022-08-16T10:56:52.141Z,2795.62
2022-08-16T10:57:18.956Z,2716.88
2022-08-16T10:58:18.891Z,2778.75
2022-08-16T10:59:45.922Z,2840.62
2022-08-16T11:00:19.126Z,781.88
2022-08-16T11:01:43.411Z,2857.50
2022-08-16T11:02:58.100Z,2840.62
2022-08-16T11:05:18.528Z,2739.38
2022-08-16T11:06:17.432Z,3088.12
2022-08-16T11:08:23.571Z,2970.00
2022-08-16T11:09:24.417Z,2970.00
2022-08-16T11:10:20.233Z,2958.75
2022-08-16T11:11:19.609Z,2975.62
2022-08-16T11:12:17.761Z,2992.50
2022-08-16T11:14:18.948Z,2953.12
2022-08-16T11:15:18.850Z,922.50
2022-08-16T11:17:18.410Z,787.50
2022-08-16T11:19:04.361Z,776.25
2022-08-16T11:19:18.327Z,776.25
2022-08-16T11:21:29.368Z,900.00
2022-08-16T11:22:38.790Z,2874.38
2022-08-16T11:23:18.227Z,3003.75
2022-08-16T11:24:39.431Z,3093.75
2022-08-16T11:26:07.840Z,3161.25
2022-08-16T11:26:23.658Z,1147.50
2022-08-16T11:27:20.115Z,1023.75
2022-08-16T11:28:36.454Z,928.12
2022-08-16T11:29:18.147Z,950.62
2022-08-16T11:30:21.829Z,990.00
2022-08-16T11:31:18.185Z,1046.25
2022-08-16T11:32:20.285Z,956.25
2022-08-16T11:33:18.265Z,900.00
2022-08-16T11:34:20.794Z,855.00
2022-08-16T11:35:17.226Z,843.75
2022-08-16T11:36:27.554Z,894.38
2022-08-16T11:37:20.044Z,978.75
2022-08-16T11:38:47.002Z,1029.38
2022-08-16T11:39:18.056Z,1096.88
2022-08-16T11:40:17.069Z,1074.38
2022-08-16T11:41:17.092Z,1023.75
2022-08-16T11:42:29.194Z,1006.88
2022-08-16T11:43:18.010Z,1040.62
2022-08-16T11:44:20.492Z,1282.50
2022-08-16T11:45:18.053Z,2998.12
2022-08-16T11:46:42.965Z,3031.88
2022-08-16T11:47:17.959Z,1423.12
2022-08-16T11:48:16.989Z,3105.00
2022-08-16T11:49:16.959Z,3076.88
2022-08-16T11:50:17.119Z,3088.12
2022-08-16T11:51:16.937Z,3009.38
2022-08-16T11:52:17.464Z,2970.00
2022-08-16T11:53:16.920Z,2975.62
2022-08-16T11:54:20.620Z,2975.62
2022-08-16T11:55:17.970Z,2930.62
2022-08-16T11:56:16.906Z,2953.12
2022-08-16T11:57:17.870Z,2986.88
2022-08-16T11:58:16.861Z,3037.50
2022-08-16T11:59:16.875Z,3003.75
2022-08-16T12:00:44.953Z,3043.12
2022-08-16T12:01:17.846Z,3088.12
2022-08-16T12:02:32.173Z,3105.00
2022-08-16T12:03:18.232Z,3155.62
2022-08-16T12:04:18.010Z,1237.50
2022-08-16T12:05:16.884Z,1226.25
2022-08-16T12:06:24.881Z,1170.00
2022-08-16T12:07:17.774Z,1496.25
2022-08-16T12:08:18.302Z,2902.50
2022-08-16T12:09:16.739Z,905.62
2022-08-16T12:10:16.772Z,855.00
2022-08-16T12:11:16.733Z,911.25
2022-08-16T12:12:18.640Z,3082.50
2022-08-16T12:13:16.737Z,3138.75
2022-08-16T12:14:16.720Z,3127.50
2022-08-16T12:15:16.730Z,3105.00
2022-08-16T12:16:17.632Z,3116.25
2022-08-16T12:17:16.714Z,3071.25
2022-08-16T12:18:20.592Z,3043.12
2022-08-16T12:19:16.812Z,3026.25
2022-08-16T12:20:19.006Z,2981.25
2022-08-16T12:21:16.698Z,866.25
2022-08-16T12:22:19.889Z,1383.75
2022-08-16T12:23:17.285Z,1552.50
2022-08-16T12:24:16.613Z,3082.50
2022-08-16T12:25:16.661Z,3082.50
2022-08-16T12:26:16.891Z,3082.50
2022-08-16T12:27:16.613Z,3150.00
2022-08-16T12:28:16.613Z,3211.88
2022-08-16T12:29:17.623Z,3234.38
2022-08-16T12:30:26.241Z,888.75
2022-08-16T12:31:17.580Z,883.12
2022-08-16T12:32:37.630Z,765.00
2022-08-16T12:33:25.424Z,770.62
2022-08-16T12:34:19.879Z,3228.75
2022-08-16T12:35:17.516Z,3330.00
2022-08-16T12:36:16.498Z,967.50
2022-08-16T12:37:16.481Z,871.88
2022-08-16T12:38:41.647Z,916.88
2022-08-16T12:39:17.500Z,3453.75
2022-08-16T12:40:23.801Z,3549.38
2022-08-16T12:41:24.473Z,3521.25
2022-08-16T12:42:17.425Z,3481.88